Terminal Aerodrome Forecast
Issued by NWS Northern Indiana

Home | Current Version | Previous Version | Text Only | Print | Product List | Glossary On
Versions: 1 2 3 4 5 6 7 8 9 10 11 12 13 14 15 16 17 18 19 20 21
000
FTUS43 KIWX 090537
TAFFWA
TAF
KFWA 090537Z 0906/1006 21009KT P6SM OVC060
     FM091300 24010KT 4SM -SN SCT020 OVC030
     FM092000 31012G20KT P6SM BKN015
     FM100300 31008KT P6SM BKN015=

USA.gov is the U.S. government's official web portal to all federal, state and local government web resources and services.